Calfucura, Argentina
Current Conditions -  °F | °C
As of 7:00 PM on Tuesday 25 Nov 2014 (Local Time) from SAZM Reporting Station
Clear Clear  
Wind Chill: 17°   Ceiling: Unl
Heat Index: 17°   Visibility: 6mi
Dew Point:   Wind: 12mph
Humidity: 59%   Direction: 70°ENE
Pressure: 29.91"   Gusts: NA
Location:  37.68°S, 57.52°W
Report Text: SAZM 252200Z 07010KT CAVOK 17/09 Q1013
Loading
Personal Weather Stations






























Interactive Weather Map New forecast layout! Learn more

10-Day Weather Forecast

Advertisements
Track Severe Weather on mobile